Time;durP1;ratioP1;P1;durP2;ratioP2;P2;SDS_P1;SDS_P2;PMS_P1;PMS_P2;Temp;Humidity;BMP_temperature;BMP_pressure;BME280_temperature;BME280_humidity;BME280_pressure;Samples;Min_cycle;Max_cycle;Signal;HPM_P1;HPM_P2
2022/07/28 00:00:02;;;;;;;7.25;2.03;;;15.10;99.90;;;;;;5031067;28;20043;-74
2022/07/28 00:02:28;;;;;;;5.20;2.05;;;15.00;99.90;;;;;;5023817;28;20032;-74
2022/07/28 00:04:54;;;;;;;6.90;1.80;;;15.00;99.90;;;;;;5026353;28;20025;-74
2022/07/28 00:07:19;;;;;;;3.33;1.30;;;15.00;99.90;;;;;;5048223;28;20496;-74
2022/07/28 00:09:45;;;;;;;7.43;1.80;;;14.90;99.90;;;;;;5028836;28;20403;-74
2022/07/28 00:12:11;;;;;;;5.55;2.40;;;14.90;99.90;;;;;;5044465;28;20504;-74
2022/07/28 00:14:36;;;;;;;7.55;1.65;;;14.90;99.90;;;;;;5047302;28;20037;-73
2022/07/28 00:17:03;;;;;;;5.65;1.50;;;14.80;99.90;;;;;;5029544;28;20035;-74
2022/07/28 00:19:28;;;;;;;5.10;1.90;;;14.80;99.90;;;;;;5029993;28;20476;-76
2022/07/28 00:21:54;;;;;;;4.22;1.90;;;14.80;99.90;;;;;;5048968;28;20031;-74
2022/07/28 00:24:20;;;;;;;9.35;2.33;;;14.70;99.90;;;;;;5013450;28;20040;-73
2022/07/28 00:26:45;;;;;;;6.22;1.80;;;14.70;99.90;;;;;;5043615;28;20250;-74
2022/07/28 00:29:11;;;;;;;5.78;2.22;;;14.70;99.90;;;;;;5046016;28;20107;-75
2022/07/28 00:31:37;;;;;;;4.82;1.63;;;14.70;99.90;;;;;;5030844;28;20025;-74
2022/07/28 00:34:02;;;;;;;6.55;2.08;;;14.70;99.90;;;;;;5048167;28;20064;-75
2022/07/28 00:36:28;;;;;;;9.40;2.25;;;14.60;99.90;;;;;;5045738;28;20500;-74
2022/07/28 00:38:54;;;;;;;3.33;1.45;;;14.60;99.90;;;;;;5030547;28;20029;-74
2022/07/28 00:41:20;;;;;;;8.07;1.85;;;14.60;99.90;;;;;;5029656;28;20035;-73
2022/07/28 00:43:47;;;;;;;3.03;1.50;;;14.60;99.90;;;;;;5049756;28;20029;-73
2022/07/28 00:46:16;;;;;;;6.95;1.90;;;14.50;99.90;;;;;;5038437;28;20377;-74
2022/07/28 00:48:48;;;;;;;7.18;1.90;;;14.50;99.90;;;;;;5017020;28;20618;-75
2022/07/28 00:51:17;;;;;;;9.93;2.20;;;14.50;99.90;;;;;;5032875;28;20060;-74
2022/07/28 00:53:44;;;;;;;7.53;2.20;;;14.50;99.90;;;;;;5015735;28;20021;-74
2022/07/28 00:56:09;;;;;;;7.45;2.33;;;14.50;99.90;;;;;;5017172;28;20029;-74
2022/07/28 00:58:36;;;;;;;7.90;2.25;;;14.40;99.90;;;;;;5049681;28;20032;-75
2022/07/28 01:01:08;;;;;;;5.95;1.70;;;14.40;99.90;;;;;;5052751;28;20056;-74
2022/07/28 01:03:37;;;;;;;4.05;1.83;;;14.40;99.90;;;;;;5032762;28;20108;-75
2022/07/28 01:06:25;;;;;;;5.50;1.55;;;14.40;99.90;;;;;;5049570;28;20078;-75
2022/07/28 01:09:09;;;;;;;7.07;2.17;;;14.30;99.90;;;;;;5034329;28;20113;-74
2022/07/28 01:11:50;;;;;;;5.75;2.00;;;14.30;99.90;;;;;;5030899;28;20067;-74
2022/07/28 01:14:43;;;;;;;4.65;2.05;;;14.30;99.90;;;;;;5048021;28;20178;-75
2022/07/28 01:17:19;;;;;;;7.43;2.22;;;14.30;99.90;;;;;;5029889;28;20448;-75
2022/07/28 01:19:55;;;;;;;7.53;1.95;;;14.20;99.90;;;;;;5032615;28;20028;-75
2022/07/28 01:22:24;;;;;;;4.75;1.77;;;14.20;99.90;;;;;;5032972;28;20040;-74
2022/07/28 01:25:11;;;;;;;5.57;1.83;;;14.20;99.90;;;;;;5030733;28;20021;-75
2022/07/28 01:27:48;;;;;;;7.15;1.73;;;14.20;99.90;;;;;;5047160;28;20094;-75
2022/07/28 01:30:35;;;;;;;4.78;1.90;;;14.20;99.90;;;;;;5045815;28;20061;-75
2022/07/28 01:33:07;;;;;;;4.80;1.58;;;14.20;99.90;;;;;;5029523;28;20456;-75
2022/07/28 01:35:40;;;;;;;6.20;1.83;;;14.20;99.90;;;;;;5044664;28;20033;-75
2022/07/28 01:38:08;;;;;;;6.53;1.90;;;14.20;99.90;;;;;;5050916;28;20069;-74
2022/07/28 01:40:36;;;;;;;6.78;1.73;;;14.20;99.90;;;;;;5049283;28;20026;-74
2022/07/28 01:43:06;;;;;;;5.47;2.17;;;14.20;99.90;;;;;;5046818;28;20137;-75
2022/07/28 01:45:33;;;;;;;5.57;1.85;;;14.20;99.90;;;;;;5047111;28;20424;-74
2022/07/28 01:48:02;;;;;;;7.70;2.20;;;14.10;99.90;;;;;;5049762;28;20108;-75
2022/07/28 01:50:29;;;;;;;5.43;1.70;;;14.20;99.90;;;;;;5047907;28;20108;-74
2022/07/28 01:52:56;;;;;;;5.38;1.70;;;14.20;99.90;;;;;;5018297;28;20029;-75
2022/07/28 01:55:23;;;;;;;6.53;1.75;;;14.20;99.90;;;;;;5047783;28;20025;-74
2022/07/28 01:57:52;;;;;;;9.52;2.50;;;14.30;99.90;;;;;;5046799;28;20044;-75
2022/07/28 02:00:18;;;;;;;5.15;1.90;;;14.30;99.90;;;;;;5049859;28;20032;-74
2022/07/28 02:02:47;;;;;;;7.60;1.70;;;14.30;99.90;;;;;;5048475;28;20107;-74
2022/07/28 02:05:16;;;;;;;4.47;1.70;;;14.30;99.90;;;;;;5031160;28;20036;-74
2022/07/28 02:07:45;;;;;;;5.20;1.88;;;14.30;99.90;;;;;;5030756;28;20036;-74
2022/07/28 02:10:13;;;;;;;7.47;1.67;;;14.30;99.90;;;;;;5050479;28;20036;-74
2022/07/28 02:12:40;;;;;;;6.03;2.10;;;14.40;99.90;;;;;;5030428;28;20076;-75
2022/07/28 02:15:10;;;;;;;6.28;1.83;;;14.40;99.90;;;;;;5048974;28;20049;-75
2022/07/28 02:17:36;;;;;;;5.85;1.77;;;14.40;99.90;;;;;;5046737;28;20033;-74
2022/07/28 02:20:05;;;;;;;2.90;1.63;;;14.40;99.90;;;;;;5057842;28;20028;-75
2022/07/28 02:22:32;;;;;;;7.85;1.75;;;14.40;99.90;;;;;;5032573;28;20029;-73
2022/07/28 02:24:58;;;;;;;5.40;2.13;;;14.40;99.90;;;;;;5030907;28;20026;-73
2022/07/28 02:27:43;;;;;;;4.72;1.67;;;14.30;99.90;;;;;;5030804;28;20114;-73
2022/07/28 02:30:21;;;;;;;4.55;1.55;;;14.30;99.90;;;;;;5049993;28;20096;-74
2022/07/28 02:33:01;;;;;;;7.85;1.70;;;14.30;99.90;;;;;;5031721;28;20032;-74
2022/07/28 02:35:43;;;;;;;6.82;1.70;;;14.20;99.90;;;;;;5045690;28;21804;-74
2022/07/28 02:38:21;;;;;;;3.25;1.73;;;14.20;99.90;;;;;;5030270;28;20029;-75
2022/07/28 02:40:51;;;;;;;5.20;1.40;;;14.20;99.90;;;;;;5047393;28;20120;-76
2022/07/28 02:43:23;;;;;;;9.18;1.60;;;14.10;99.90;;;;;;5031115;28;20048;-74
2022/07/28 02:45:54;;;;;;;4.65;1.60;;;14.20;99.90;;;;;;5032466;28;20033;-74
2022/07/28 02:48:24;;;;;;;4.30;2.00;;;14.20;99.90;;;;;;5048682;28;20032;-74
2022/07/28 02:50:51;;;;;;;6.53;1.70;;;14.20;99.90;;;;;;5045403;28;20429;-75
2022/07/28 02:53:19;;;;;;;3.75;1.58;;;14.20;99.90;;;;;;5050866;28;20037;-73
2022/07/28 02:55:47;;;;;;;6.28;1.95;;;14.10;99.90;;;;;;5048955;28;20029;-75
2022/07/28 02:58:17;;;;;;;5.28;1.95;;;14.10;99.90;;;;;;5028929;28;20029;-73
2022/07/28 03:00:43;;;;;;;7.47;1.77;;;14.10;99.90;;;;;;5045958;28;20758;-74
2022/07/28 03:03:10;;;;;;;6.68;1.95;;;14.10;99.90;;;;;;5029630;28;20029;-75
2022/07/28 03:05:36;;;;;;;5.32;1.92;;;14.10;99.90;;;;;;5029046;28;20021;-74
2022/07/28 03:08:01;;;;;;;7.05;2.33;;;14.10;99.90;;;;;;5032021;28;20036;-73
2022/07/28 03:10:28;;;;;;;8.10;1.73;;;14.10;99.90;;;;;;5030530;28;20035;-74
2022/07/28 03:12:55;;;;;;;6.97;1.90;;;14.20;99.90;;;;;;5040618;28;20295;-75
2022/07/28 03:15:22;;;;;;;3.78;1.67;;;14.20;99.90;;;;;;5034957;28;20128;-75
2022/07/28 03:17:47;;;;;;;5.13;1.75;;;14.20;99.90;;;;;;5031973;28;20029;-75
2022/07/28 03:20:13;;;;;;;6.40;1.75;;;14.20;99.90;;;;;;5047956;28;20028;-74
2022/07/28 03:22:39;;;;;;;5.90;1.70;;;14.20;99.90;;;;;;5046894;28;20025;-74
2022/07/28 03:25:46;;;;;;;5.13;2.40;;;14.20;99.90;;;;;;5027901;28;20055;-75
2022/07/28 03:28:18;;;;;;;4.78;2.08;;;14.20;99.90;;;;;;4970429;28;20034;-74
2022/07/28 03:30:50;;;;;;;2.40;1.40;;;14.20;99.90;;;;;;5025689;28;20045;-73
2022/07/28 03:33:17;;;;;;;5.25;1.55;;;14.20;99.90;;;;;;5031462;28;20039;-74
2022/07/28 03:35:49;;;;;;;6.10;1.60;;;14.10;99.90;;;;;;5048207;28;20025;-74
2022/07/28 03:38:20;;;;;;;4.63;1.60;;;14.10;99.90;;;;;;5046164;28;20033;-73
2022/07/28 03:40:48;;;;;;;4.75;1.30;;;14.10;99.90;;;;;;5047298;28;20071;-74
2022/07/28 03:43:17;;;;;;;4.50;1.88;;;14.10;99.90;;;;;;5030140;28;20025;-75
2022/07/28 03:45:44;;;;;;;4.82;1.35;;;14.10;99.90;;;;;;5049015;28;20028;-76
2022/07/28 03:48:10;;;;;;;8.43;2.28;;;14.10;99.90;;;;;;5047107;28;20554;-74
2022/07/28 03:50:36;;;;;;;3.85;1.45;;;14.10;99.90;;;;;;5047474;28;20029;-74
2022/07/28 03:53:02;;;;;;;3.70;1.65;;;14.20;99.90;;;;;;5049367;28;20029;-73
2022/07/28 03:55:27;;;;;;;6.03;1.40;;;14.20;99.90;;;;;;5046606;28;20032;-76
2022/07/28 03:57:55;;;;;;;6.43;1.65;;;14.20;99.90;;;;;;5047003;28;20401;-76
2022/07/28 04:00:24;;;;;;;5.97;1.42;;;14.30;99.90;;;;;;5047796;28;20732;-75
2022/07/28 04:02:50;;;;;;;4.03;1.70;;;14.30;99.90;;;;;;5045066;28;20029;-74
2022/07/28 04:05:17;;;;;;;4.53;1.42;;;14.30;99.90;;;;;;5046288;28;20029;-74
2022/07/28 04:07:44;;;;;;;4.00;1.75;;;14.40;99.90;;;;;;5047410;28;20029;-74
2022/07/28 04:10:13;;;;;;;6.57;1.73;;;14.40;99.90;;;;;;5044911;28;20036;-74
2022/07/28 04:12:54;;;;;;;4.28;1.73;;;14.40;99.90;;;;;;5029130;28;20025;-75
2022/07/28 04:15:20;;;;;;;5.50;1.85;;;14.40;99.90;;;;;;5045748;28;20032;-75
2022/07/28 04:17:48;;;;;;;5.15;1.90;;;14.40;99.90;;;;;;5029951;28;20041;-75
2022/07/28 04:20:15;;;;;;;4.28;1.73;;;14.40;99.90;;;;;;5011726;28;20080;-74
2022/07/28 04:22:42;;;;;;;6.10;1.67;;;14.40;99.90;;;;;;5026616;28;20028;-74
2022/07/28 04:25:08;;;;;;;5.07;1.90;;;14.50;99.90;;;;;;5047247;28;20057;-74
2022/07/28 04:27:35;;;;;;;5.00;1.88;;;14.50;99.90;;;;;;5044118;28;20366;-74
2022/07/28 04:30:03;;;;;;;5.15;2.10;;;14.40;99.90;;;;;;5025281;28;20025;-74
2022/07/28 04:32:29;;;;;;;3.55;1.20;;;14.40;99.90;;;;;;5028912;28;20648;-74
2022/07/28 04:34:55;;;;;;;3.55;1.70;;;14.50;99.90;;;;;;5046202;28;20104;-74
2022/07/28 04:37:21;;;;;;;3.92;1.40;;;14.50;99.90;;;;;;5046868;28;20086;-75
2022/07/28 04:39:47;;;;;;;3.33;1.50;;;14.50;99.90;;;;;;5044778;28;20033;-75
2022/07/28 04:42:13;;;;;;;5.63;1.40;;;14.50;99.90;;;;;;5045029;28;20040;-75
2022/07/28 04:44:41;;;;;;;5.57;1.75;;;14.50;99.90;;;;;;5046825;28;20029;-74
2022/07/28 04:47:08;;;;;;;3.67;1.60;;;14.60;99.90;;;;;;5045917;28;20029;-75
2022/07/28 04:49:34;;;;;;;3.85;1.73;;;14.60;99.90;;;;;;5046817;28;20032;-74
2022/07/28 04:51:59;;;;;;;5.00;2.13;;;14.70;99.90;;;;;;5046759;28;20025;-74
2022/07/28 04:54:25;;;;;;;3.95;1.77;;;14.70;99.90;;;;;;5045882;28;20075;-74
2022/07/28 04:56:51;;;;;;;4.82;1.80;;;14.80;99.90;;;;;;5047723;28;20029;-75
2022/07/28 04:59:17;;;;;;;5.90;2.10;;;14.80;99.90;;;;;;5034615;28;20029;-74
2022/07/28 05:01:43;;;;;;;5.15;2.13;;;14.80;99.90;;;;;;5043504;28;20033;-74
2022/07/28 05:04:09;;;;;;;6.00;1.88;;;14.90;99.90;;;;;;5027353;28;20493;-75
2022/07/28 05:06:35;;;;;;;4.75;1.95;;;14.90;99.90;;;;;;5026294;28;20039;-74
2022/07/28 05:09:01;;;;;;;6.93;2.08;;;14.90;99.90;;;;;;5028916;28;20032;-73
2022/07/28 05:11:27;;;;;;;4.43;1.90;;;14.90;99.90;;;;;;5027637;28;20037;-73
2022/07/28 05:13:53;;;;;;;4.20;1.50;;;15.00;99.90;;;;;;5030056;28;20033;-74
2022/07/28 05:16:19;;;;;;;10.05;1.92;;;15.00;99.90;;;;;;5042247;28;20452;-73
2022/07/28 05:18:45;;;;;;;6.85;2.15;;;15.10;99.90;;;;;;5027946;28;20564;-73
2022/07/28 05:21:10;;;;;;;5.20;2.08;;;15.10;99.90;;;;;;5027138;28;20131;-73
2022/07/28 05:23:36;;;;;;;5.18;2.00;;;15.20;99.90;;;;;;5028973;28;20032;-73
2022/07/28 05:26:03;;;;;;;10.32;2.38;;;15.20;99.90;;;;;;5044198;28;20043;-74
2022/07/28 05:28:29;;;;;;;4.03;1.85;;;15.30;99.90;;;;;;5047630;28;20713;-74
2022/07/28 05:30:55;;;;;;;3.08;1.67;;;15.30;99.90;;;;;;5040821;28;20057;-74
2022/07/28 05:33:20;;;;;;;4.53;1.63;;;15.30;99.90;;;;;;5050095;28;20542;-74
2022/07/28 05:35:56;;;;;;;3.78;1.70;;;15.40;99.90;;;;;;5050208;28;20068;-75
2022/07/28 05:38:22;;;;;;;6.82;2.28;;;15.40;99.90;;;;;;5048060;28;21724;-75
2022/07/28 05:40:49;;;;;;;13.25;5.55;;;15.40;99.90;;;;;;5029765;28;20032;-74
2022/07/28 05:43:15;;;;;;;7.70;3.90;;;15.40;99.90;;;;;;5032756;28;20456;-74
2022/07/28 05:45:40;;;;;;;8.70;3.00;;;15.40;99.90;;;;;;5031579;28;20025;-75
2022/07/28 05:48:06;;;;;;;5.35;2.42;;;15.40;99.90;;;;;;5047637;28;20095;-74
2022/07/28 05:50:32;;;;;;;6.13;1.98;;;15.40;99.90;;;;;;5049042;28;20033;-74
2022/07/28 05:52:58;;;;;;;10.55;2.50;;;15.50;99.90;;;;;;5048732;28;20037;-74
2022/07/28 05:55:24;;;;;;;5.78;1.40;;;15.50;99.90;;;;;;5045851;28;20607;-74
2022/07/28 05:57:49;;;;;;;6.70;2.22;;;15.50;99.90;;;;;;5030422;28;20079;-73
2022/07/28 06:00:18;;;;;;;3.78;1.55;;;15.50;99.90;;;;;;5047294;28;20033;-74
2022/07/28 06:02:45;;;;;;;4.97;1.77;;;15.60;99.90;;;;;;5063446;28;20032;-76
2022/07/28 06:05:12;;;;;;;4.07;1.40;;;15.70;99.90;;;;;;5041619;28;20447;-76
2022/07/28 06:07:38;;;;;;;3.17;1.40;;;15.70;99.90;;;;;;5040422;28;20033;-77
2022/07/28 06:10:05;;;;;;;4.82;1.48;;;15.80;99.90;;;;;;5042583;28;20059;-77
2022/07/28 06:12:30;;;;;;;7.07;1.63;;;15.90;99.90;;;;;;5054666;28;20021;-78
2022/07/28 06:14:56;;;;;;;6.38;1.40;;;16.00;99.90;;;;;;5044622;28;20037;-78
2022/07/28 06:17:22;;;;;;;4.63;1.27;;;16.00;99.90;;;;;;5045111;28;20552;-77
2022/07/28 06:19:48;;;;;;;6.32;1.27;;;16.10;99.90;;;;;;5032818;28;20021;-78
2022/07/28 06:22:14;;;;;;;6.28;1.48;;;16.10;99.90;;;;;;5032747;28;20032;-78
2022/07/28 06:24:40;;;;;;;3.72;1.38;;;16.20;99.90;;;;;;5051103;28;20078;-78
2022/07/28 06:27:07;;;;;;;3.50;1.20;;;16.20;99.90;;;;;;5035088;28;20029;-78
2022/07/28 06:29:33;;;;;;;7.28;1.60;;;16.30;99.90;;;;;;5029968;28;20029;-77
2022/07/28 06:31:59;;;;;;;4.93;1.30;;;16.30;99.90;;;;;;5034316;28;20032;-78
2022/07/28 06:34:24;;;;;;;6.00;1.67;;;16.30;99.90;;;;;;5053793;28;20025;-78
2022/07/28 06:36:50;;;;;;;10.35;1.73;;;16.20;99.90;;;;;;5035246;28;20055;-78
2022/07/28 06:39:16;;;;;;;3.20;1.33;;;16.20;99.90;;;;;;5045533;28;20024;-78
2022/07/28 06:41:43;;;;;;;6.15;1.55;;;16.20;99.90;;;;;;5052357;28;20040;-78
2022/07/28 06:44:09;;;;;;;3.08;1.10;;;16.20;99.90;;;;;;5048859;28;20029;-77
2022/07/28 06:46:36;;;;;;;5.25;1.30;;;16.30;99.90;;;;;;5019407;28;20120;-78
2022/07/28 06:49:02;;;;;;;3.63;1.20;;;16.30;99.90;;;;;;5045479;28;20032;-78
2022/07/28 06:51:28;;;;;;;2.95;1.10;;;16.30;99.90;;;;;;5026628;28;20039;-76
2022/07/28 06:53:54;;;;;;;6.43;1.30;;;16.40;99.90;;;;;;5052930;28;20075;-78
2022/07/28 06:56:21;;;;;;;2.65;1.35;;;16.40;99.90;;;;;;5028771;28;20064;-74
2022/07/28 06:58:46;;;;;;;4.32;1.30;;;16.40;99.90;;;;;;5027244;28;20105;-73
2022/07/28 07:01:13;;;;;;;5.22;1.40;;;16.40;99.90;;;;;;5043458;28;20147;-76
2022/07/28 07:03:39;;;;;;;6.45;1.30;;;16.50;99.90;;;;;;5045983;28;20036;-74
2022/07/28 07:06:05;;;;;;;3.67;0.90;;;16.50;99.90;;;;;;5044018;28;20029;-75
2022/07/28 07:08:31;;;;;;;2.85;1.23;;;16.50;99.90;;;;;;5013464;28;20025;-75
2022/07/28 07:10:57;;;;;;;4.95;1.27;;;16.50;99.90;;;;;;5048172;28;20469;-75
2022/07/28 07:13:23;;;;;;;3.70;1.10;;;16.50;99.90;;;;;;5048620;28;20116;-75
2022/07/28 07:15:49;;;;;;;4.45;1.10;;;16.60;99.90;;;;;;5031151;28;20142;-74
2022/07/28 07:18:15;;;;;;;3.70;0.90;;;16.60;99.90;;;;;;5031599;28;20488;-75
2022/07/28 07:20:40;;;;;;;3.45;0.98;;;16.70;99.90;;;;;;5047802;28;20025;-76
2022/07/28 07:23:06;;;;;;;3.00;1.13;;;16.70;99.90;;;;;;5030821;28;20428;-75
2022/07/28 07:25:32;;;;;;;2.70;1.00;;;16.80;99.90;;;;;;5043416;28;20147;-75
2022/07/28 07:27:58;;;;;;;2.15;1.02;;;16.80;99.90;;;;;;5049295;28;20029;-74
2022/07/28 07:30:24;;;;;;;5.03;1.45;;;16.90;99.90;;;;;;5044347;28;20033;-74
2022/07/28 07:32:49;;;;;;;5.57;1.27;;;17.00;99.90;;;;;;5032386;28;20020;-74
2022/07/28 07:35:15;;;;;;;4.47;1.60;;;17.00;99.90;;;;;;5018232;28;20210;-75
2022/07/28 07:37:41;;;;;;;3.45;1.20;;;17.00;99.90;;;;;;5046369;28;20123;-73
2022/07/28 07:40:08;;;;;;;4.35;1.40;;;17.00;99.90;;;;;;5016861;28;20504;-74
2022/07/28 07:42:33;;;;;;;6.10;1.15;;;17.00;99.90;;;;;;5040412;28;20079;-73
2022/07/28 07:45:00;;;;;;;7.07;1.30;;;16.90;99.90;;;;;;5036345;28;20031;-74
2022/07/28 07:47:26;;;;;;;2.90;0.85;;;16.90;99.90;;;;;;5046168;28;20526;-73
2022/07/28 07:49:51;;;;;;;3.85;1.05;;;17.00;99.90;;;;;;5027449;28;20029;-75
2022/07/28 07:52:17;;;;;;;4.65;1.27;;;17.10;99.90;;;;;;5046025;28;20040;-74
2022/07/28 07:54:44;;;;;;;3.53;1.15;;;17.10;99.50;;;;;;5043231;28;20029;-74
2022/07/28 07:57:10;;;;;;;4.70;0.98;;;17.10;99.90;;;;;;5031260;28;20029;-71
2022/07/28 07:59:35;;;;;;;2.78;0.70;;;17.20;99.90;;;;;;5046172;28;20039;-74
2022/07/28 08:02:01;;;;;;;4.13;0.95;;;17.30;99.70;;;;;;5014606;28;20040;-73
2022/07/28 08:04:27;;;;;;;3.10;0.88;;;17.40;99.90;;;;;;5011782;28;20029;-74
2022/07/28 08:06:53;;;;;;;6.03;1.33;;;17.40;99.90;;;;;;5046268;28;20029;-75
2022/07/28 08:09:19;;;;;;;5.20;1.30;;;17.40;99.90;;;;;;5028004;28;20050;-75
2022/07/28 08:11:45;;;;;;;4.05;0.95;;;17.40;99.20;;;;;;5029018;28;20621;-74
2022/07/28 08:14:11;;;;;;;2.38;1.05;;;17.30;99.80;;;;;;5011500;28;20040;-75
2022/07/28 08:16:37;;;;;;;3.58;1.17;;;17.30;99.10;;;;;;5049913;28;20037;-75
2022/07/28 08:19:03;;;;;;;3.92;1.13;;;17.20;99.50;;;;;;5042701;28;20029;-74
2022/07/28 08:21:29;;;;;;;11.43;1.67;;;17.30;99.60;;;;;;5042224;28;20032;-75
2022/07/28 08:23:55;;;;;;;6.32;1.10;;;17.30;99.90;;;;;;5031706;28;20465;-75
2022/07/28 08:26:22;;;;;;;4.88;0.95;;;17.30;99.50;;;;;;5049631;28;20406;-76
2022/07/28 08:28:47;;;;;;;4.00;1.38;;;17.50;99.40;;;;;;5048449;28;20102;-75
2022/07/28 08:31:15;;;;;;;3.72;1.13;;;17.50;99.60;;;;;;5031505;28;20501;-77
2022/07/28 08:33:42;;;;;;;5.75;1.40;;;17.60;99.80;;;;;;5047420;28;20025;-74
2022/07/28 08:36:08;;;;;;;4.38;1.13;;;17.70;99.00;;;;;;5048465;28;20025;-76
2022/07/28 08:38:34;;;;;;;3.88;1.20;;;17.70;98.70;;;;;;5030395;28;20091;-76
2022/07/28 08:41:03;;;;;;;4.15;1.27;;;17.60;98.90;;;;;;5030710;28;20038;-77
2022/07/28 08:43:36;;;;;;;2.53;0.90;;;17.50;98.50;;;;;;5015091;28;20087;-76
2022/07/28 08:46:05;;;;;;;5.18;1.70;;;17.60;98.60;;;;;;5046125;28;20031;-77
2022/07/28 08:48:33;;;;;;;5.05;1.30;;;17.70;99.00;;;;;;5048818;28;20029;-74
2022/07/28 08:51:03;;;;;;;5.28;1.17;;;17.70;99.00;;;;;;5045954;28;20033;-75
2022/07/28 08:53:35;;;;;;;3.33;1.08;;;17.70;98.70;;;;;;5029789;28;20397;-74
2022/07/28 08:56:12;;;;;;;5.68;1.00;;;17.70;98.80;;;;;;5028830;28;20601;-75
2022/07/28 08:58:38;;;;;;;7.47;1.00;;;17.80;98.40;;;;;;5046151;28;20033;-74
2022/07/28 09:01:07;;;;;;;4.90;1.20;;;17.80;98.10;;;;;;5030100;28;20027;-75
2022/07/28 09:03:34;;;;;;;3.85;1.60;;;17.80;97.50;;;;;;5032758;28;20032;-75
2022/07/28 09:06:00;;;;;;;9.00;1.42;;;18.00;97.60;;;;;;5033136;28;20052;-74
2022/07/28 09:08:26;;;;;;;3.88;1.00;;;18.10;97.80;;;;;;5034678;28;20032;-75
2022/07/28 09:10:52;;;;;;;5.88;0.95;;;18.20;97.30;;;;;;5032585;28;20442;-75
2022/07/28 09:13:18;;;;;;;4.00;0.93;;;18.10;97.70;;;;;;5033642;28;20057;-74
2022/07/28 09:15:47;;;;;;;3.03;0.98;;;18.20;96.80;;;;;;5013153;28;20078;-75
2022/07/28 09:18:18;;;;;;;3.33;0.93;;;18.30;96.60;;;;;;5048229;28;20029;-75
2022/07/28 09:20:44;;;;;;;5.22;0.80;;;18.20;96.00;;;;;;5051196;28;20029;-75
2022/07/28 09:23:11;;;;;;;3.90;1.15;;;18.40;96.40;;;;;;5043937;28;20037;-75
2022/07/28 09:25:36;;;;;;;4.85;1.33;;;18.40;96.50;;;;;;5031903;28;20119;-73
2022/07/28 09:28:16;;;;;;;4.20;1.00;;;18.30;96.40;;;;;;5050609;28;20037;-76
2022/07/28 09:30:44;;;;;;;2.45;0.65;;;18.40;96.10;;;;;;5030404;28;20033;-73
2022/07/28 09:33:15;;;;;;;3.20;1.17;;;18.40;95.70;;;;;;5049239;28;20083;-74
2022/07/28 09:35:50;;;;;;;2.42;1.10;;;18.40;95.80;;;;;;5030137;28;20072;-75
2022/07/28 09:38:16;;;;;;;4.93;1.13;;;18.40;95.70;;;;;;5032168;28;20057;-77
2022/07/28 09:40:55;;;;;;;5.30;1.10;;;18.50;96.00;;;;;;5033182;28;20021;-75
2022/07/28 09:43:30;;;;;;;4.18;0.90;;;18.50;94.40;;;;;;5052497;28;20025;-75
2022/07/28 09:46:05;;;;;;;3.72;0.93;;;18.40;96.20;;;;;;5031924;28;20498;-75
2022/07/28 09:48:31;;;;;;;4.53;0.88;;;18.40;94.90;;;;;;5033843;28;20103;-76
2022/07/28 09:51:27;;;;;;;3.53;1.00;;;18.50;95.30;;;;;;5047925;28;20519;-74
2022/07/28 09:54:09;;;;;;;4.60;1.00;;;18.70;94.10;;;;;;5023744;28;20072;-75
2022/07/28 09:56:37;;;;;;;3.10;0.75;;;18.60;94.00;;;;;;5046818;28;20116;-74
2022/07/28 09:59:02;;;;;;;2.85;1.40;;;18.80;94.80;;;;;;5047859;28;20029;-75
2022/07/28 10:01:29;;;;;;;3.95;0.90;;;18.90;95.20;;;;;;5032911;28;20021;-75
2022/07/28 10:03:56;;;;;;;6.07;1.02;;;19.20;94.40;;;;;;5044965;28;20047;-75
2022/07/28 10:06:28;;;;;;;3.47;0.77;;;19.30;94.80;;;;;;5031965;28;20021;-75
2022/07/28 10:09:02;;;;;;;2.47;0.75;;;19.30;92.90;;;;;;5043055;28;20036;-73
2022/07/28 10:11:29;;;;;;;3.13;0.90;;;19.30;93.00;;;;;;5047126;28;20029;-75
2022/07/28 10:13:56;;;;;;;3.05;1.00;;;19.10;93.00;;;;;;5032608;28;21006;-75
2022/07/28 10:16:51;;;;;;;4.18;1.00;;;19.10;93.30;;;;;;5051408;28;20037;-75
2022/07/28 10:19:17;;;;;;;6.32;1.48;;;19.10;93.40;;;;;;5043639;28;20048;-75
2022/07/28 10:21:44;;;;;;;2.80;0.95;;;19.00;93.90;;;;;;5049060;28;20025;-74
2022/07/28 10:24:21;;;;;;;3.63;1.08;;;19.00;93.90;;;;;;5050976;28;20041;-75
2022/07/28 10:26:48;;;;;;;4.32;1.13;;;19.00;94.30;;;;;;5044457;28;20066;-75
2022/07/28 10:29:17;;;;;;;3.17;1.02;;;19.00;94.40;;;;;;5028417;28;20028;-75
2022/07/28 10:31:53;;;;;;;4.10;0.90;;;19.00;94.20;;;;;;5032711;28;20393;-76
2022/07/28 10:34:26;;;;;;;4.63;1.30;;;19.00;93.10;;;;;;5049428;28;20024;-76
2022/07/28 10:36:54;;;;;;;2.35;0.90;;;19.00;93.30;;;;;;5049039;28;20025;-76
2022/07/28 10:39:24;;;;;;;3.35;1.00;;;19.00;93.20;;;;;;5033723;28;20515;-75
2022/07/28 10:41:50;;;;;;;2.83;0.75;;;19.00;93.10;;;;;;5053191;28;20113;-79
2022/07/28 10:44:18;;;;;;;6.25;1.02;;;19.00;92.70;;;;;;5052145;28;20021;-76
2022/07/28 10:46:45;;;;;;;1.23;0.70;;;19.00;92.70;;;;;;5030057;28;20036;-78
2022/07/28 10:49:12;;;;;;;2.33;0.52;;;19.10;92.10;;;;;;5053212;28;20087;-78
2022/07/28 10:51:42;;;;;;;0.90;0.60;;;19.10;92.10;;;;;;5056385;28;20083;-80
2022/07/28 10:54:16;;;;;;;3.13;0.85;;;19.10;92.60;;;;;;5036491;28;20040;-78
2022/07/28 10:56:55;;;;;;;3.53;0.90;;;19.00;92.30;;;;;;5053630;28;20032;-80
2022/07/28 10:59:42;;;;;;;2.22;0.80;;;18.70;92.00;;;;;;5055223;28;20029;-78
2022/07/28 11:02:07;;;;;;;2.10;0.70;;;18.60;92.40;;;;;;5033280;28;20025;-76
2022/07/28 11:04:55;;;;;;;2.22;1.10;;;18.70;92.50;;;;;;5051510;28;20025;-78
2022/07/28 11:07:21;;;;;;;4.43;1.40;;;18.70;93.10;;;;;;5054364;28;20538;-78
2022/07/28 11:09:47;;;;;;;2.55;0.77;;;18.70;92.80;;;;;;5047841;28;20021;-75
2022/07/28 11:12:16;;;;;;;3.05;0.80;;;18.70;93.10;;;;;;5046928;28;20056;-74
2022/07/28 11:14:43;;;;;;;1.98;0.80;;;18.50;92.00;;;;;;5048502;28;20028;-75
2022/07/28 11:17:11;;;;;;;4.85;1.00;;;18.50;92.40;;;;;;5028151;28;20071;-74
2022/07/28 11:19:43;;;;;;;2.38;0.90;;;18.40;92.70;;;;;;5032578;28;20404;-74
2022/07/28 11:22:18;;;;;;;1.52;0.95;;;18.50;93.20;;;;;;5029695;28;20078;-75
2022/07/28 11:24:56;;;;;;;3.03;0.90;;;18.50;93.50;;;;;;5027591;28;20532;-75
2022/07/28 11:27:45;;;;;;;2.55;0.80;;;18.60;93.00;;;;;;5048077;28;20203;-74
2022/07/28 11:30:31;;;;;;;4.45;1.15;;;18.70;92.80;;;;;;5047781;28;20032;-74
2022/07/28 11:33:00;;;;;;;3.47;0.80;;;18.70;93.00;;;;;;5024714;28;20064;-77
2022/07/28 11:35:28;;;;;;;1.95;0.60;;;18.70;92.90;;;;;;5045498;28;20029;-75
2022/07/28 11:38:14;;;;;;;3.65;1.05;;;18.70;93.40;;;;;;5028589;28;20091;-74
2022/07/28 11:41:00;;;;;;;2.00;0.80;;;18.60;93.10;;;;;;5048831;28;20029;-74
2022/07/28 11:43:28;;;;;;;3.80;1.00;;;18.60;93.20;;;;;;4992121;28;20513;-74
2022/07/28 11:46:05;;;;;;;2.30;0.63;;;18.60;92.00;;;;;;4995202;28;20038;-75
2022/07/28 11:48:32;;;;;;;3.10;1.00;;;18.70;92.60;;;;;;4979781;28;20724;-76
2022/07/28 11:51:04;;;;;;;3.33;1.00;;;18.70;93.00;;;;;;4997975;28;20049;-76
2022/07/28 11:53:36;;;;;;;2.60;0.90;;;18.80;93.40;;;;;;4999510;28;20456;-76
2022/07/28 11:56:04;;;;;;;3.47;1.00;;;18.90;93.10;;;;;;4991413;28;20522;-75
2022/07/28 11:58:29;;;;;;;2.67;1.00;;;18.80;92.10;;;;;;4980846;28;20034;-75
2022/07/28 12:01:18;;;;;;;3.20;1.00;;;18.90;91.40;;;;;;4965647;28;20643;-75
2022/07/28 12:03:45;;;;;;;2.72;0.70;;;19.10;92.00;;;;;;4994585;28;20991;-75
2022/07/28 12:06:13;;;;;;;4.72;1.45;;;19.10;92.20;;;;;;4981028;28;20121;-76
2022/07/28 12:09:16;;;;;;;1.90;0.85;;;19.20;91.90;;;;;;4996175;28;20042;-77
2022/07/28 12:11:44;;;;;;;3.65;1.13;;;19.10;91.70;;;;;;4957787;28;20046;-74
2022/07/28 12:14:12;;;;;;;3.35;1.13;;;19.00;91.20;;;;;;4993701;28;20097;-75
2022/07/28 12:16:40;;;;;;;3.78;0.90;;;19.00;91.50;;;;;;4980690;28;20103;-75
2022/07/28 12:19:07;;;;;;;2.78;1.02;;;18.90;91.80;;;;;;4978009;28;20034;-75
2022/07/28 12:21:41;;;;;;;2.10;1.00;;;18.90;91.90;;;;;;5027960;28;20033;-75
2022/07/28 12:24:12;;;;;;;2.97;0.98;;;19.00;91.30;;;;;;5030109;28;20263;-74
2022/07/28 12:26:38;;;;;;;;;;;18.90;91.50;;;;;;5048757;28;20104;-74
2022/07/28 12:29:05;;;;;;;2.95;0.88;;;18.90;91.40;;;;;;5032962;28;20253;-76
2022/07/28 12:31:32;;;;;;;1.73;0.90;;;18.90;92.00;;;;;;5030597;28;20048;-74
2022/07/28 12:34:05;;;;;;;1.88;1.10;;;18.90;92.40;;;;;;5030482;28;20036;-76
2022/07/28 12:36:32;;;;;;;1.77;1.00;;;19.00;92.70;;;;;;5047275;28;20059;-74
2022/07/28 12:39:00;;;;;;;5.55;1.40;;;19.00;92.80;;;;;;5034213;28;20131;-75
2022/07/28 12:41:39;;;;;;;3.50;1.45;;;19.10;92.90;;;;;;5034702;28;20331;-75
2022/07/28 12:44:05;;;;;;;3.53;0.98;;;19.10;92.70;;;;;;5035193;28;20036;-75
2022/07/28 12:46:32;;;;;;;2.65;1.23;;;19.20;92.50;;;;;;5049886;28;20029;-75
2022/07/28 12:48:59;;;;;;;1.88;1.02;;;19.20;92.00;;;;;;5053389;28;20033;-75
2022/07/28 12:51:37;;;;;;;3.33;1.00;;;19.20;91.50;;;;;;5034804;28;20047;-74
2022/07/28 12:54:05;;;;;;;3.75;1.15;;;19.20;91.00;;;;;;5051432;28;20675;-75
2022/07/28 12:56:42;;;;;;;2.90;1.10;;;19.20;91.10;;;;;;5051668;28;20123;-77